createdAt,value
2018-12-21T00:03:57.757Z,1.90
2018-12-21T00:08:47.801Z,1.77
2018-12-21T00:13:35.401Z,1.43
2018-12-21T00:18:29.010Z,1.70
2018-12-21T00:23:20.058Z,1.53
2018-12-21T00:28:07.166Z,1.53
2018-12-21T00:32:59.501Z,1.20
2018-12-21T00:38:01.024Z,1.40
2018-12-21T00:43:07.618Z,1.10
2018-12-21T00:48:01.667Z,1.00
2018-12-21T00:52:46.749Z,1.10
2018-12-21T01:02:42.178Z,1.40
2018-12-21T01:07:26.157Z,1.40
2018-12-21T01:12:10.633Z,1.53
2018-12-21T01:16:54.288Z,1.57
2018-12-21T01:21:38.820Z,1.10
2018-12-21T01:26:22.975Z,1.20
2018-12-21T01:31:06.774Z,1.40
2018-12-21T01:35:50.654Z,1.40
2018-12-21T01:40:34.617Z,1.40
2018-12-21T01:45:18.511Z,1.30
2018-12-21T01:50:02.216Z,1.20
2018-12-21T01:54:46.235Z,1.30
2018-12-21T01:59:30.135Z,1.40
2018-12-21T02:04:14.803Z,1.10
2018-12-21T02:09:02.875Z,1.37
2018-12-21T02:13:46.622Z,1.33
2018-12-21T02:18:30.357Z,1.90
2018-12-21T02:23:14.153Z,1.70
2018-12-21T02:27:57.807Z,1.83
2018-12-21T02:32:41.540Z,1.60
2018-12-21T02:37:25.327Z,1.60
2018-12-21T02:42:08.984Z,1.60
2018-12-21T02:46:52.627Z,1.60
2018-12-21T02:51:36.984Z,1.80
2018-12-21T02:56:20.650Z,1.73
2018-12-21T03:01:04.376Z,1.63
2018-12-21T03:05:48.093Z,1.77
2018-12-21T03:10:31.738Z,1.53
2018-12-21T03:15:15.515Z,1.60
2018-12-21T03:19:59.252Z,1.57
2018-12-21T03:24:43.032Z,1.87
2018-12-21T03:29:26.761Z,1.60
2018-12-21T03:34:10.461Z,1.90
2018-12-21T03:38:54.190Z,1.87
2018-12-21T03:43:37.850Z,1.53
2018-12-21T03:48:21.491Z,1.40
2018-12-21T03:53:05.160Z,1.67
2018-12-21T03:57:48.848Z,1.50
2018-12-21T04:02:32.515Z,1.50
2018-12-21T04:07:16.216Z,1.53
2018-12-21T04:11:59.890Z,1.60
2018-12-21T04:16:43.583Z,1.30
2018-12-21T04:21:28.078Z,1.30
2018-12-21T04:26:11.711Z,1.40
2018-12-21T04:30:57.392Z,1.50
2018-12-21T04:35:41.124Z,1.37
2018-12-21T04:40:24.810Z,1.63
2018-12-21T04:45:08.568Z,1.00
2018-12-21T04:49:52.321Z,1.37
2018-12-21T04:54:36.512Z,1.30
2018-12-21T04:59:20.141Z,1.33
2018-12-21T05:04:03.741Z,1.60
2018-12-21T05:08:47.405Z,1.10
2018-12-21T05:13:31.095Z,1.13
2018-12-21T05:18:14.711Z,1.00
2018-12-21T05:23:00.124Z,1.10
2018-12-21T05:32:54.904Z,1.43
2018-12-21T05:37:38.894Z,1.10
2018-12-21T05:42:22.764Z,1.33
2018-12-21T05:47:06.514Z,1.40
2018-12-21T05:52:00.029Z,1.10
2018-12-21T05:56:47.459Z,1.40
2018-12-21T06:01:49.046Z,0.90
2018-12-21T06:06:38.693Z,1.03
2018-12-21T06:11:28.928Z,1.23
2018-12-21T06:16:16.214Z,1.10
2018-12-21T06:21:03.211Z,1.20
2018-12-21T06:25:50.371Z,1.50
2018-12-21T06:30:52.761Z,1.10
2018-12-21T06:35:36.394Z,1.00
2018-12-21T06:40:20.048Z,1.30
2018-12-21T06:45:04.158Z,1.00
2018-12-21T06:49:47.976Z,1.27
2018-12-21T06:54:31.822Z,1.20
2018-12-21T06:59:15.539Z,1.30
2018-12-21T07:03:59.530Z,1.60
2018-12-21T07:08:43.192Z,1.40
2018-12-21T07:13:26.828Z,1.53
2018-12-21T07:18:10.478Z,1.60
2018-12-21T07:22:54.148Z,1.83
2018-12-21T07:27:37.768Z,1.60
2018-12-21T07:32:21.416Z,1.80
2018-12-21T07:37:05.166Z,1.23
2018-12-21T07:41:48.786Z,1.33
2018-12-21T07:46:32.480Z,1.67
2018-12-21T07:51:16.405Z,1.63
2018-12-21T07:56:00.229Z,1.80
2018-12-21T08:00:44.046Z,1.23
2018-12-21T08:05:27.748Z,1.30
2018-12-21T08:10:14.778Z,1.30
2018-12-21T08:14:58.393Z,1.13
2018-12-21T08:19:42.087Z,1.30
2018-12-21T08:24:25.781Z,1.30
2018-12-21T08:29:09.414Z,1.13
2018-12-21T08:33:53.080Z,1.30
2018-12-21T08:38:36.789Z,1.10
2018-12-21T08:43:20.443Z,1.20
2018-12-21T08:48:04.123Z,1.30
2018-12-21T08:52:47.900Z,1.30
2018-12-21T08:57:31.661Z,1.17
2018-12-21T09:02:15.383Z,1.27
2018-12-21T09:06:59.222Z,1.40
2018-12-21T09:11:43.049Z,1.50
2018-12-21T09:16:26.730Z,1.70
2018-12-21T09:21:10.487Z,1.30
2018-12-21T09:25:54.371Z,1.63
2018-12-21T09:30:38.077Z,1.57
2018-12-21T09:35:22.919Z,1.33
2018-12-21T09:40:10.754Z,2.33
2018-12-21T09:44:54.482Z,6.77
2018-12-21T09:49:38.186Z,2.43
2018-12-21T09:54:21.749Z,2.10
2018-12-21T09:59:05.507Z,2.20
2018-12-21T10:03:49.486Z,1.20
2018-12-21T10:08:33.199Z,1.30
2018-12-21T10:13:17.036Z,1.57
2018-12-21T10:18:00.746Z,1.07
2018-12-21T10:22:44.410Z,1.60
2018-12-21T10:27:28.155Z,0.90
2018-12-21T10:42:40.560Z,1.17
2018-12-21T10:47:26.334Z,0.90
2018-12-21T10:52:17.573Z,1.30
2018-12-21T10:57:23.229Z,1.33
2018-12-21T11:02:07.038Z,1.40
2018-12-21T11:06:50.728Z,1.80
2018-12-21T11:11:34.389Z,1.30
2018-12-21T11:16:18.061Z,1.40
2018-12-21T11:21:01.723Z,1.60
2018-12-21T11:25:45.480Z,1.63
2018-12-21T11:30:33.310Z,1.30
2018-12-21T11:35:27.121Z,1.10
2018-12-21T11:40:20.697Z,1.53
2018-12-21T11:45:16.759Z,1.60
2018-12-21T11:50:00.410Z,1.80
2018-12-21T11:54:45.860Z,1.60
2018-12-21T11:59:33.269Z,1.73
2018-12-21T12:04:21.069Z,1.80
2018-12-21T12:09:13.088Z,1.97
2018-12-21T12:13:56.906Z,2.20
2018-12-21T12:18:40.618Z,2.30
2018-12-21T12:23:26.161Z,2.20
2018-12-21T12:28:09.820Z,2.03
2018-12-21T12:32:53.532Z,2.27
2018-12-21T12:37:37.253Z,1.70
2018-12-21T12:42:21.135Z,2.00
2018-12-21T12:47:04.947Z,2.13
2018-12-21T12:51:48.718Z,2.00
2018-12-21T12:56:33.214Z,1.33
2018-12-21T13:01:17.180Z,1.40
2018-12-21T13:06:03.136Z,1.47
2018-12-21T13:10:47.012Z,1.30
2018-12-21T13:15:30.862Z,1.10
2018-12-21T13:20:14.600Z,1.30
2018-12-21T13:30:19.609Z,0.80
2018-12-21T13:35:05.000Z,0.80
2018-12-21T13:39:51.969Z,0.90
2018-12-21T13:44:41.485Z,0.70
2018-12-21T13:49:29.239Z,1.10
2018-12-21T13:54:16.420Z,1.20
2018-12-21T13:59:03.673Z,0.70
2018-12-21T14:03:50.592Z,0.70
2018-12-21T14:08:44.234Z,0.80
2018-12-21T14:13:34.302Z,1.00
2018-12-21T14:18:36.878Z,0.80
2018-12-21T14:28:39.734Z,0.83
2018-12-21T14:33:27.038Z,0.90
2018-12-21T14:38:15.498Z,0.80
2018-12-21T14:43:09.107Z,0.77
2018-12-21T14:47:54.767Z,1.17
2018-12-21T14:52:42.085Z,1.10
2018-12-21T14:57:37.763Z,0.70
2018-12-21T15:02:33.357Z,0.70
2018-12-21T15:07:26.562Z,0.60
2018-12-21T15:12:16.495Z,0.60
2018-12-21T15:17:00.290Z,0.50
2018-12-21T15:21:44.024Z,0.60
2018-12-21T15:26:28.115Z,0.80
2018-12-21T15:36:24.898Z,0.70
2018-12-21T15:41:10.017Z,0.50
2018-12-21T15:45:55.372Z,0.60
2018-12-21T15:55:54.769Z,0.60
2018-12-21T16:00:36.748Z,1.03
2018-12-21T16:05:20.564Z,0.70
2018-12-21T16:10:05.091Z,0.73
2018-12-21T16:14:48.851Z,0.63
2018-12-21T16:19:35.654Z,0.80
2018-12-21T16:24:19.532Z,0.80
2018-12-21T16:29:03.278Z,0.63
2018-12-21T16:33:48.155Z,0.60
2018-12-21T16:38:31.813Z,0.67
2018-12-21T16:43:15.612Z,0.67
2018-12-21T16:47:59.596Z,0.90
2018-12-21T16:57:59.264Z,0.57
2018-12-21T17:02:46.868Z,0.57
2018-12-21T17:12:41.834Z,0.90
2018-12-21T17:17:25.646Z,0.50
2018-12-21T17:22:13.224Z,0.70
2018-12-21T17:32:19.921Z,0.40
2018-12-21T17:37:05.200Z,0.60
2018-12-21T17:52:12.091Z,0.60
2018-12-21T17:56:55.961Z,0.50
2018-12-21T18:01:59.110Z,0.50
2018-12-21T18:06:43.852Z,0.40
2018-12-21T18:11:27.926Z,0.60
2018-12-21T18:16:15.357Z,0.40
2018-12-21T18:20:59.609Z,0.60
2018-12-21T18:31:26.039Z,0.50
2018-12-21T18:36:16.213Z,0.40
2018-12-21T18:41:00.226Z,0.30
2018-12-21T18:45:54.336Z,0.47
2018-12-21T18:50:42.273Z,0.50
2018-12-21T18:55:32.396Z,0.50
2018-12-21T19:11:00.333Z,0.50
2018-12-21T19:15:48.501Z,0.50
2018-12-21T19:20:42.215Z,0.50
2018-12-21T19:25:31.090Z,0.80
2018-12-21T19:35:33.309Z,0.80
2018-12-21T19:40:23.503Z,0.60
2018-12-21T19:45:30.229Z,0.70
2018-12-21T19:50:36.350Z,0.70
2018-12-21T20:06:03.013Z,0.80
2018-12-21T20:26:39.367Z,0.70
2018-12-21T20:31:29.806Z,0.53
2018-12-21T20:41:25.582Z,0.77
2018-12-21T20:46:18.994Z,0.50
2018-12-21T20:51:02.929Z,0.57
2018-12-21T20:56:08.855Z,0.90
2018-12-21T21:00:52.783Z,0.80
2018-12-21T21:05:37.376Z,0.90
2018-12-21T21:10:21.298Z,1.00
2018-12-21T21:15:06.495Z,1.10
2018-12-21T21:20:02.342Z,1.03
2018-12-21T21:40:20.479Z,0.80
2018-12-21T21:45:15.223Z,0.90
2018-12-21T21:49:59.365Z,0.80
2018-12-21T21:54:43.381Z,0.60
2018-12-21T21:59:27.407Z,0.80
2018-12-21T22:14:42.819Z,1.30
2018-12-21T22:19:28.980Z,1.47
2018-12-21T22:24:13.237Z,1.17
2018-12-21T22:28:57.459Z,1.87
2018-12-21T22:33:56.436Z,1.43
2018-12-21T22:39:03.830Z,1.37
2018-12-21T22:43:54.667Z,1.40
2018-12-21T22:48:47.652Z,1.70
2018-12-21T23:04:01.219Z,1.30
2018-12-21T23:08:51.096Z,1.60
2018-12-21T23:18:51.053Z,1.00
2018-12-21T23:28:46.837Z,1.20
2018-12-21T23:33:42.768Z,1.87
2018-12-21T23:49:01.012Z,1.73
